sensor_id;sensor_type;location;lat;lon;timestamp;P1;durP1;ratioP1;P2;durP2;ratioP2
62256;SDS011;48240;52.962;5.790;2023-04-25T03:52:25;3.17;;;0.93;;
62256;SDS011;48240;52.962;5.790;2023-04-25T03:54:51;3.25;;;0.98;;
62256;SDS011;48240;52.962;5.790;2023-04-25T03:57:17;4.30;;;1.10;;
62256;SDS011;48240;52.962;5.790;2023-04-25T03:59:43;5.45;;;1.20;;
62256;SDS011;48240;52.962;5.790;2023-04-25T04:02:09;5.88;;;1.20;;
62256;SDS011;48240;52.962;5.790;2023-04-25T04:04:35;3.70;;;1.10;;
62256;SDS011;48240;52.962;5.790;2023-04-25T04:07:02;4.60;;;1.00;;
62256;SDS011;48240;52.962;5.790;2023-04-25T04:09:28;4.47;;;1.20;;
62256;SDS011;48240;52.962;5.790;2023-04-25T04:11:54;3.72;;;1.00;;
62256;SDS011;48240;52.962;5.790;2023-04-25T04:14:20;3.88;;;1.10;;
62256;SDS011;48240;52.962;5.790;2023-04-25T04:16:46;1.83;;;0.82;;
62256;SDS011;48240;52.962;5.790;2023-04-25T04:19:13;5.72;;;1.00;;
62256;SDS011;48240;52.962;5.790;2023-04-25T04:21:39;4.03;;;1.33;;
62256;SDS011;48240;52.962;5.790;2023-04-25T04:24:05;2.63;;;0.73;;
62256;SDS011;48240;52.962;5.790;2023-04-25T04:26:31;4.38;;;1.10;;
62256;SDS011;48240;52.962;5.790;2023-04-25T04:28:59;6.50;;;1.27;;
62256;SDS011;48240;52.962;5.790;2023-04-25T04:31:25;4.20;;;0.90;;
62256;SDS011;48240;52.962;5.790;2023-04-25T04:33:51;4.03;;;1.35;;
62256;SDS011;48240;52.962;5.790;2023-04-25T04:36:17;3.83;;;1.00;;
62256;SDS011;48240;52.962;5.790;2023-04-25T04:38:45;3.22;;;0.82;;
62256;SDS011;48240;52.962;5.790;2023-04-25T04:41:11;3.40;;;1.15;;
62256;SDS011;48240;52.962;5.790;2023-04-25T04:43:37;4.40;;;1.33;;
62256;SDS011;48240;52.962;5.790;2023-04-25T04:46:04;6.43;;;1.52;;
62256;SDS011;48240;52.962;5.790;2023-04-25T04:48:33;4.40;;;1.00;;
62256;SDS011;48240;52.962;5.790;2023-04-25T04:51:00;3.38;;;0.98;;
62256;SDS011;48240;52.962;5.790;2023-04-25T04:53:26;3.72;;;1.20;;
62256;SDS011;48240;52.962;5.790;2023-04-25T04:55:52;4.60;;;1.00;;
62256;SDS011;48240;52.962;5.790;2023-04-25T04:58:18;3.97;;;1.10;;
62256;SDS011;48240;52.962;5.790;2023-04-25T05:00:45;2.50;;;0.80;;
62256;SDS011;48240;52.962;5.790;2023-04-25T05:03:11;3.33;;;1.00;;
62256;SDS011;48240;52.962;5.790;2023-04-25T05:05:38;3.00;;;0.80;;
62256;SDS011;48240;52.962;5.790;2023-04-25T05:08:05;3.17;;;0.82;;
62256;SDS011;48240;52.962;5.790;2023-04-25T05:10:31;5.60;;;0.90;;
62256;SDS011;48240;52.962;5.790;2023-04-25T05:12:57;3.58;;;1.13;;
62256;SDS011;48240;52.962;5.790;2023-04-25T05:15:23;2.60;;;0.75;;
62256;SDS011;48240;52.962;5.790;2023-04-25T05:17:50;3.10;;;0.90;;
62256;SDS011;48240;52.962;5.790;2023-04-25T05:20:16;3.60;;;1.00;;
62256;SDS011;48240;52.962;5.790;2023-04-25T05:22:44;3.70;;;1.02;;
62256;SDS011;48240;52.962;5.790;2023-04-25T05:25:10;2.92;;;0.85;;
62256;SDS011;48240;52.962;5.790;2023-04-25T05:27:36;4.05;;;0.80;;
62256;SDS011;48240;52.962;5.790;2023-04-25T05:30:03;2.90;;;1.00;;
62256;SDS011;48240;52.962;5.790;2023-04-25T05:32:30;3.47;;;0.80;;
62256;SDS011;48240;52.962;5.790;2023-04-25T05:34:56;2.30;;;0.60;;
62256;SDS011;48240;52.962;5.790;2023-04-25T05:37:22;4.70;;;0.80;;
62256;SDS011;48240;52.962;5.790;2023-04-25T05:39:48;3.85;;;0.77;;
62256;SDS011;48240;52.962;5.790;2023-04-25T05:42:15;2.72;;;0.90;;
62256;SDS011;48240;52.962;5.790;2023-04-25T05:44:41;6.20;;;0.80;;
62256;SDS011;48240;52.962;5.790;2023-04-25T05:47:07;2.47;;;0.80;;
62256;SDS011;48240;52.962;5.790;2023-04-25T05:49:33;2.28;;;0.90;;
62256;SDS011;48240;52.962;5.790;2023-04-25T05:52:00;3.75;;;0.82;;
62256;SDS011;48240;52.962;5.790;2023-04-25T05:54:26;3.47;;;0.95;;
62256;SDS011;48240;52.962;5.790;2023-04-25T05:56:52;4.25;;;1.10;;
62256;SDS011;48240;52.962;5.790;2023-04-25T05:59:18;3.88;;;0.88;;
62256;SDS011;48240;52.962;5.790;2023-04-25T06:01:45;2.20;;;0.93;;
62256;SDS011;48240;52.962;5.790;2023-04-25T06:04:11;2.60;;;0.70;;
62256;SDS011;48240;52.962;5.790;2023-04-25T06:06:37;3.40;;;1.10;;
62256;SDS011;48240;52.962;5.790;2023-04-25T06:09:03;2.88;;;0.85;;
62256;SDS011;48240;52.962;5.790;2023-04-25T06:11:30;4.25;;;1.00;;
62256;SDS011;48240;52.962;5.790;2023-04-25T06:13:56;4.47;;;1.00;;
62256;SDS011;48240;52.962;5.790;2023-04-25T06:16:22;3.92;;;0.75;;
62256;SDS011;48240;52.962;5.790;2023-04-25T06:18:50;2.97;;;0.85;;
62256;SDS011;48240;52.962;5.790;2023-04-25T06:21:16;4.18;;;0.88;;
62256;SDS011;48240;52.962;5.790;2023-04-25T06:23:43;2.80;;;0.80;;
62256;SDS011;48240;52.962;5.790;2023-04-25T06:26:09;3.17;;;0.80;;
62256;SDS011;48240;52.962;5.790;2023-04-25T06:28:35;3.45;;;0.70;;
62256;SDS011;48240;52.962;5.790;2023-04-25T06:31:01;4.40;;;1.15;;
62256;SDS011;48240;52.962;5.790;2023-04-25T06:33:27;2.45;;;0.80;;
62256;SDS011;48240;52.962;5.790;2023-04-25T06:35:53;3.47;;;0.82;;
62256;SDS011;48240;52.962;5.790;2023-04-25T06:38:19;2.75;;;0.85;;
62256;SDS011;48240;52.962;5.790;2023-04-25T06:40:45;3.05;;;0.90;;
62256;SDS011;48240;52.962;5.790;2023-04-25T06:43:12;4.53;;;1.10;;
62256;SDS011;48240;52.962;5.790;2023-04-25T06:45:38;4.45;;;1.05;;
62256;SDS011;48240;52.962;5.790;2023-04-25T06:48:04;3.30;;;0.85;;
62256;SDS011;48240;52.962;5.790;2023-04-25T06:50:30;4.03;;;0.98;;
62256;SDS011;48240;52.962;5.790;2023-04-25T06:52:56;2.58;;;0.68;;
62256;SDS011;48240;52.962;5.790;2023-04-25T06:55:22;2.92;;;0.88;;
62256;SDS011;48240;52.962;5.790;2023-04-25T06:57:49;4.25;;;0.90;;
62256;SDS011;48240;52.962;5.790;2023-04-25T07:00:15;2.72;;;0.80;;
62256;SDS011;48240;52.962;5.790;2023-04-25T07:02:41;6.13;;;1.10;;
62256;SDS011;48240;52.962;5.790;2023-04-25T07:05:08;3.95;;;0.93;;
62256;SDS011;48240;52.962;5.790;2023-04-25T07:07:34;3.92;;;0.75;;
62256;SDS011;48240;52.962;5.790;2023-04-25T07:10:01;4.15;;;0.90;;
62256;SDS011;48240;52.962;5.790;2023-04-25T07:12:27;2.55;;;0.80;;
62256;SDS011;48240;52.962;5.790;2023-04-25T07:14:53;4.85;;;0.80;;
62256;SDS011;48240;52.962;5.790;2023-04-25T07:17:19;2.88;;;0.85;;
62256;SDS011;48240;52.962;5.790;2023-04-25T07:19:45;1.88;;;0.60;;
62256;SDS011;48240;52.962;5.790;2023-04-25T07:22:11;3.55;;;1.10;;
62256;SDS011;48240;52.962;5.790;2023-04-25T07:24:37;3.92;;;0.88;;
62256;SDS011;48240;52.962;5.790;2023-04-25T07:27:03;3.67;;;0.70;;
62256;SDS011;48240;52.962;5.790;2023-04-25T07:29:29;2.85;;;0.70;;
62256;SDS011;48240;52.962;5.790;2023-04-25T07:31:56;2.40;;;0.70;;
62256;SDS011;48240;52.962;5.790;2023-04-25T07:34:22;2.10;;;0.70;;
62256;SDS011;48240;52.962;5.790;2023-04-25T07:36:48;2.13;;;0.70;;
62256;SDS011;48240;52.962;5.790;2023-04-25T07:39:15;4.22;;;0.80;;
62256;SDS011;48240;52.962;5.790;2023-04-25T07:41:41;2.53;;;0.70;;
62256;SDS011;48240;52.962;5.790;2023-04-25T07:44:07;3.08;;;1.05;;
62256;SDS011;48240;52.962;5.790;2023-04-25T07:46:33;2.63;;;0.80;;
62256;SDS011;48240;52.962;5.790;2023-04-25T07:48:59;1.38;;;0.70;;
62256;SDS011;48240;52.962;5.790;2023-04-25T07:51:25;3.40;;;0.80;;
62256;SDS011;48240;52.962;5.790;2023-04-25T07:53:52;2.90;;;0.73;;
62256;SDS011;48240;52.962;5.790;2023-04-25T07:56:18;3.38;;;0.60;;
62256;SDS011;48240;52.962;5.790;2023-04-25T07:58:45;3.20;;;0.73;;
62256;SDS011;48240;52.962;5.790;2023-04-25T08:01:11;3.42;;;0.90;;
62256;SDS011;48240;52.962;5.790;2023-04-25T08:03:37;3.80;;;0.90;;
62256;SDS011;48240;52.962;5.790;2023-04-25T08:06:03;4.30;;;0.80;;
62256;SDS011;48240;52.962;5.790;2023-04-25T08:08:29;3.75;;;0.90;;
62256;SDS011;48240;52.962;5.790;2023-04-25T08:10:55;3.53;;;0.70;;
62256;SDS011;48240;52.962;5.790;2023-04-25T08:13:21;4.15;;;0.80;;
62256;SDS011;48240;52.962;5.790;2023-04-25T08:15:47;3.47;;;0.90;;
62256;SDS011;48240;52.962;5.790;2023-04-25T08:18:13;4.13;;;0.88;;
62256;SDS011;48240;52.962;5.790;2023-04-25T08:20:39;2.65;;;0.63;;
62256;SDS011;48240;52.962;5.790;2023-04-25T08:23:05;3.42;;;0.70;;
62256;SDS011;48240;52.962;5.790;2023-04-25T08:25:32;2.72;;;0.75;;
62256;SDS011;48240;52.962;5.790;2023-04-25T08:27:58;3.50;;;0.80;;
62256;SDS011;48240;52.962;5.790;2023-04-25T08:30:24;4.88;;;0.70;;
62256;SDS011;48240;52.962;5.790;2023-04-25T08:32:52;2.63;;;0.73;;
62256;SDS011;48240;52.962;5.790;2023-04-25T08:35:18;3.63;;;0.93;;
62256;SDS011;48240;52.962;5.790;2023-04-25T08:37:44;3.15;;;0.90;;
62256;SDS011;48240;52.962;5.790;2023-04-25T08:40:11;4.28;;;0.68;;
62256;SDS011;48240;52.962;5.790;2023-04-25T08:42:38;2.60;;;0.73;;
62256;SDS011;48240;52.962;5.790;2023-04-25T08:45:06;3.83;;;0.90;;
62256;SDS011;48240;52.962;5.790;2023-04-25T08:47:33;4.00;;;0.90;;
62256;SDS011;48240;52.962;5.790;2023-04-25T08:50:00;3.85;;;0.70;;
62256;SDS011;48240;52.962;5.790;2023-04-25T08:52:28;2.63;;;0.70;;
62256;SDS011;48240;52.962;5.790;2023-04-25T08:54:56;2.55;;;0.68;;
62256;SDS011;48240;52.962;5.790;2023-04-25T08:57:22;3.67;;;0.88;;
62256;SDS011;48240;52.962;5.790;2023-04-25T08:59:49;2.53;;;0.80;;
62256;SDS011;48240;52.962;5.790;2023-04-25T09:02:15;2.47;;;0.75;;
62256;SDS011;48240;52.962;5.790;2023-04-25T09:04:43;3.30;;;0.80;;
62256;SDS011;48240;52.962;5.790;2023-04-25T09:07:09;3.22;;;0.80;;
62256;SDS011;48240;52.962;5.790;2023-04-25T09:09:35;2.72;;;0.90;;
62256;SDS011;48240;52.962;5.790;2023-04-25T09:12:02;3.88;;;0.95;;
62256;SDS011;48240;52.962;5.790;2023-04-25T09:14:28;3.03;;;0.77;;
62256;SDS011;48240;52.962;5.790;2023-04-25T09:19:24;1.90;;;0.77;;
62256;SDS011;48240;52.962;5.790;2023-04-25T09:21:50;4.18;;;0.88;;
62256;SDS011;48240;52.962;5.790;2023-04-25T09:24:19;1.90;;;0.68;;
62256;SDS011;48240;52.962;5.790;2023-04-25T09:26:56;3.63;;;0.95;;
62256;SDS011;48240;52.962;5.790;2023-04-25T09:29:28;3.63;;;0.90;;
62256;SDS011;48240;52.962;5.790;2023-04-25T09:32:10;6.25;;;0.98;;
62256;SDS011;48240;52.962;5.790;2023-04-25T09:34:40;3.75;;;1.00;;
62256;SDS011;48240;52.962;5.790;2023-04-25T09:37:09;3.55;;;0.80;;
62256;SDS011;48240;52.962;5.790;2023-04-25T09:39:37;3.10;;;0.60;;
62256;SDS011;48240;52.962;5.790;2023-04-25T09:42:04;2.60;;;1.00;;
62256;SDS011;48240;52.962;5.790;2023-04-25T09:44:30;3.67;;;0.93;;
62256;SDS011;48240;52.962;5.790;2023-04-25T09:46:56;2.42;;;0.70;;
62256;SDS011;48240;52.962;5.790;2023-04-25T09:49:25;2.85;;;0.80;;
62256;SDS011;48240;52.962;5.790;2023-04-25T09:51:56;6.43;;;1.17;;
62256;SDS011;48240;52.962;5.790;2023-04-25T09:54:23;5.30;;;1.00;;
62256;SDS011;48240;52.962;5.790;2023-04-25T09:56:49;2.15;;;0.68;;
62256;SDS011;48240;52.962;5.790;2023-04-25T09:59:18;3.40;;;0.80;;
62256;SDS011;48240;52.962;5.790;2023-04-25T10:01:45;2.22;;;0.65;;
62256;SDS011;48240;52.962;5.790;2023-04-25T10:04:12;3.85;;;0.90;;
62256;SDS011;48240;52.962;5.790;2023-04-25T10:06:38;3.20;;;0.60;;
62256;SDS011;48240;52.962;5.790;2023-04-25T10:09:06;5.63;;;0.80;;
62256;SDS011;48240;52.962;5.790;2023-04-25T10:11:32;1.52;;;0.60;;
62256;SDS011;48240;52.962;5.790;2023-04-25T10:14:00;3.40;;;0.82;;
62256;SDS011;48240;52.962;5.790;2023-04-25T10:16:26;1.55;;;0.45;;
62256;SDS011;48240;52.962;5.790;2023-04-25T10:18:52;3.72;;;0.70;;
62256;SDS011;48240;52.962;5.790;2023-04-25T10:21:18;3.42;;;0.70;;
62256;SDS011;48240;52.962;5.790;2023-04-25T10:23:46;3.03;;;0.75;;
62256;SDS011;48240;52.962;5.790;2023-04-25T10:26:12;4.20;;;0.77;;
62256;SDS011;48240;52.962;5.790;2023-04-25T10:28:55;1.75;;;0.50;;
62256;SDS011;48240;52.962;5.790;2023-04-25T10:31:24;7.47;;;1.17;;
62256;SDS011;48240;52.962;5.790;2023-04-25T10:33:51;3.67;;;0.55;;
62256;SDS011;48240;52.962;5.790;2023-04-25T10:36:18;3.63;;;0.70;;
62256;SDS011;48240;52.962;5.790;2023-04-25T10:38:45;2.08;;;0.63;;
62256;SDS011;48240;52.962;5.790;2023-04-25T10:41:12;2.67;;;0.80;;
62256;SDS011;48240;52.962;5.790;2023-04-25T10:43:39;2.75;;;0.80;;
62256;SDS011;48240;52.962;5.790;2023-04-25T10:46:22;4.68;;;0.73;;
62256;SDS011;48240;52.962;5.790;2023-04-25T10:51:33;4.45;;;1.00;;
62256;SDS011;48240;52.962;5.790;2023-04-25T10:54:00;3.65;;;0.80;;
62256;SDS011;48240;52.962;5.790;2023-04-25T10:59:26;2.17;;;0.63;;
62256;SDS011;48240;52.962;5.790;2023-04-25T11:01:47;2.90;;;0.80;;
62256;SDS011;48240;52.962;5.790;2023-04-25T11:04:24;4.97;;;0.80;;
62256;SDS011;48240;52.962;5.790;2023-04-25T11:09:26;6.05;;;0.98;;
62256;SDS011;48240;52.962;5.790;2023-04-25T11:11:53;4.15;;;1.00;;
62256;SDS011;48240;52.962;5.790;2023-04-25T11:14:20;3.10;;;0.90;;
62256;SDS011;48240;52.962;5.790;2023-04-25T11:16:47;2.80;;;0.80;;
62256;SDS011;48240;52.962;5.790;2023-04-25T11:19:13;1.90;;;0.50;;
62256;SDS011;48240;52.962;5.790;2023-04-25T11:21:39;5.68;;;0.88;;
62256;SDS011;48240;52.962;5.790;2023-04-25T11:24:05;4.93;;;0.90;;
62256;SDS011;48240;52.962;5.790;2023-04-25T11:26:31;3.83;;;0.93;;
62256;SDS011;48240;52.962;5.790;2023-04-25T11:28:58;5.38;;;0.85;;
62256;SDS011;48240;52.962;5.790;2023-04-25T11:31:28;4.47;;;1.00;;
62256;SDS011;48240;52.962;5.790;2023-04-25T11:33:57;5.68;;;0.95;;
62256;SDS011;48240;52.962;5.790;2023-04-25T11:36:23;4.07;;;0.80;;
62256;SDS011;48240;52.962;5.790;2023-04-25T11:38:51;2.38;;;0.88;;
62256;SDS011;48240;52.962;5.790;2023-04-25T11:41:18;6.57;;;0.90;;
62256;SDS011;48240;52.962;5.790;2023-04-25T11:43:44;2.38;;;0.70;;
62256;SDS011;48240;52.962;5.790;2023-04-25T11:46:10;1.95;;;0.88;;
62256;SDS011;48240;52.962;5.790;2023-04-25T11:48:37;4.47;;;0.90;;
62256;SDS011;48240;52.962;5.790;2023-04-25T11:51:03;4.75;;;0.90;;
62256;SDS011;48240;52.962;5.790;2023-04-25T11:53:30;3.13;;;0.80;;
62256;SDS011;48240;52.962;5.790;2023-04-25T11:55:56;3.67;;;0.75;;
62256;SDS011;48240;52.962;5.790;2023-04-25T11:58:22;3.63;;;0.93;;
62256;SDS011;48240;52.962;5.790;2023-04-25T12:00:48;2.75;;;0.88;;
62256;SDS011;48240;52.962;5.790;2023-04-25T12:03:14;2.25;;;0.90;;
62256;SDS011;48240;52.962;5.790;2023-04-25T12:05:40;3.85;;;0.80;;
62256;SDS011;48240;52.962;5.790;2023-04-25T12:08:10;4.15;;;0.98;;
62256;SDS011;48240;52.962;5.790;2023-04-25T12:10:37;3.30;;;0.90;;
62256;SDS011;48240;52.962;5.790;2023-04-25T12:13:17;5.05;;;0.93;;
62256;SDS011;48240;52.962;5.790;2023-04-25T12:15:44;5.53;;;1.05;;
62256;SDS011;48240;52.962;5.790;2023-04-25T12:18:10;4.88;;;0.90;;
62256;SDS011;48240;52.962;5.790;2023-04-25T12:20:36;5.78;;;1.20;;
62256;SDS011;48240;52.962;5.790;2023-04-25T12:23:05;3.55;;;1.02;;
62256;SDS011;48240;52.962;5.790;2023-04-25T12:28:11;5.60;;;0.75;;
62256;SDS011;48240;52.962;5.790;2023-04-25T12:33:22;3.17;;;0.80;;
62256;SDS011;48240;52.962;5.790;2023-04-25T12:35:48;5.53;;;1.40;;
62256;SDS011;48240;52.962;5.790;2023-04-25T12:38:27;4.75;;;0.80;;
62256;SDS011;48240;52.962;5.790;2023-04-25T12:40:58;2.55;;;0.93;;
62256;SDS011;48240;52.962;5.790;2023-04-25T12:43:24;4.55;;;0.98;;
62256;SDS011;48240;52.962;5.790;2023-04-25T12:45:51;3.88;;;1.00;;
62256;SDS011;48240;52.962;5.790;2023-04-25T12:48:18;4.72;;;0.93;;
62256;SDS011;48240;52.962;5.790;2023-04-25T12:50:44;6.05;;;1.00;;
62256;SDS011;48240;52.962;5.790;2023-04-25T12:53:13;6.68;;;1.08;;
62256;SDS011;48240;52.962;5.790;2023-04-25T12:55:39;3.97;;;0.90;;
62256;SDS011;48240;52.962;5.790;2023-04-25T12:58:05;5.75;;;1.13;;
62256;SDS011;48240;52.962;5.790;2023-04-25T13:00:31;1.55;;;0.52;;
62256;SDS011;48240;52.962;5.790;2023-04-25T13:02:57;4.68;;;1.02;;
62256;SDS011;48240;52.962;5.790;2023-04-25T13:05:24;3.08;;;0.90;;
62256;SDS011;48240;52.962;5.790;2023-04-25T13:07:50;3.75;;;0.70;;
62256;SDS011;48240;52.962;5.790;2023-04-25T13:10:16;3.17;;;0.85;;
62256;SDS011;48240;52.962;5.790;2023-04-25T13:12:43;3.08;;;0.80;;
62256;SDS011;48240;52.962;5.790;2023-04-25T13:15:09;3.53;;;0.90;;
62256;SDS011;48240;52.962;5.790;2023-04-25T13:17:36;3.13;;;0.95;;
62256;SDS011;48240;52.962;5.790;2023-04-25T13:20:03;3.25;;;1.00;;
62256;SDS011;48240;52.962;5.790;2023-04-25T13:22:31;3.70;;;1.00;;
62256;SDS011;48240;52.962;5.790;2023-04-25T13:24:57;3.80;;;0.80;;
62256;SDS011;48240;52.962;5.790;2023-04-25T13:27:23;2.97;;;0.90;;
62256;SDS011;48240;52.962;5.790;2023-04-25T13:29:49;3.03;;;0.70;;
62256;SDS011;48240;52.962;5.790;2023-04-25T13:32:15;3.10;;;0.95;;
62256;SDS011;48240;52.962;5.790;2023-04-25T13:34:41;2.03;;;0.63;;
62256;SDS011;48240;52.962;5.790;2023-04-25T13:37:07;4.20;;;0.65;;
62256;SDS011;48240;52.962;5.790;2023-04-25T13:39:33;2.28;;;0.70;;
62256;SDS011;48240;52.962;5.790;2023-04-25T13:42:00;4.50;;;1.00;;
62256;SDS011;48240;52.962;5.790;2023-04-25T13:44:26;3.53;;;0.90;;
62256;SDS011;48240;52.962;5.790;2023-04-25T13:46:52;6.95;;;0.98;;
62256;SDS011;48240;52.962;5.790;2023-04-25T13:49:19;1.55;;;0.68;;
62256;SDS011;48240;52.962;5.790;2023-04-25T13:51:45;3.45;;;0.80;;
62256;SDS011;48240;52.962;5.790;2023-04-25T13:54:11;3.70;;;1.10;;
62256;SDS011;48240;52.962;5.790;2023-04-25T13:56:37;2.90;;;0.77;;
62256;SDS011;48240;52.962;5.790;2023-04-25T13:59:03;3.30;;;0.60;;
62256;SDS011;48240;52.962;5.790;2023-04-25T14:01:29;4.25;;;1.17;;
62256;SDS011;48240;52.962;5.790;2023-04-25T14:03:59;2.28;;;0.80;;
62256;SDS011;48240;52.962;5.790;2023-04-25T14:06:25;4.30;;;0.80;;
62256;SDS011;48240;52.962;5.790;2023-04-25T14:08:52;3.83;;;0.98;;
62256;SDS011;48240;52.962;5.790;2023-04-25T14:11:19;3.40;;;0.82;;
62256;SDS011;48240;52.962;5.790;2023-04-25T14:13:45;5.93;;;1.00;;
62256;SDS011;48240;52.962;5.790;2023-04-25T14:16:12;2.78;;;0.70;;
62256;SDS011;48240;52.962;5.790;2023-04-25T14:18:38;6.55;;;1.10;;
62256;SDS011;48240;52.962;5.790;2023-04-25T14:21:04;3.42;;;0.90;;
62256;SDS011;48240;52.962;5.790;2023-04-25T14:23:31;3.05;;;0.98;;
62256;SDS011;48240;52.962;5.790;2023-04-25T14:25:57;3.38;;;0.80;;
62256;SDS011;48240;52.962;5.790;2023-04-25T14:28:23;3.17;;;0.60;;
62256;SDS011;48240;52.962;5.790;2023-04-25T14:30:49;3.80;;;0.60;;
62256;SDS011;48240;52.962;5.790;2023-04-25T14:33:15;4.25;;;1.00;;
62256;SDS011;48240;52.962;5.790;2023-04-25T14:35:41;3.13;;;0.80;;
62256;SDS011;48240;52.962;5.790;2023-04-25T14:38:07;4.28;;;1.15;;
62256;SDS011;48240;52.962;5.790;2023-04-25T14:40:33;1.95;;;0.77;;
62256;SDS011;48240;52.962;5.790;2023-04-25T14:43:00;4.65;;;1.00;;
62256;SDS011;48240;52.962;5.790;2023-04-25T14:45:26;2.25;;;0.77;;
62256;SDS011;48240;52.962;5.790;2023-04-25T14:47:52;2.80;;;0.90;;
62256;SDS011;48240;52.962;5.790;2023-04-25T14:50:18;2.97;;;0.90;;
62256;SDS011;48240;52.962;5.790;2023-04-25T14:52:44;2.83;;;0.70;;
62256;SDS011;48240;52.962;5.790;2023-04-25T14:55:10;2.28;;;0.60;;
62256;SDS011;48240;52.962;5.790;2023-04-25T14:57:37;1.85;;;0.73;;
62256;SDS011;48240;52.962;5.790;2023-04-25T15:00:04;2.20;;;0.60;;
62256;SDS011;48240;52.962;5.790;2023-04-25T15:02:34;3.22;;;0.90;;
62256;SDS011;48240;52.962;5.790;2023-04-25T15:05:00;3.70;;;0.85;;
62256;SDS011;48240;52.962;5.790;2023-04-25T15:07:26;3.47;;;0.90;;
62256;SDS011;48240;52.962;5.790;2023-04-25T15:09:52;5.80;;;1.20;;
62256;SDS011;48240;52.962;5.790;2023-04-25T15:12:20;2.72;;;1.00;;
62256;SDS011;48240;52.962;5.790;2023-04-25T15:14:47;4.47;;;1.00;;
62256;SDS011;48240;52.962;5.790;2023-04-25T15:17:13;4.75;;;0.95;;
62256;SDS011;48240;52.962;5.790;2023-04-25T15:19:39;3.35;;;0.88;;
62256;SDS011;48240;52.962;5.790;2023-04-25T15:22:05;7.07;;;1.30;;
62256;SDS011;48240;52.962;5.790;2023-04-25T15:24:32;6.53;;;1.35;;
62256;SDS011;48240;52.962;5.790;2023-04-25T15:26:58;6.55;;;1.30;;
62256;SDS011;48240;52.962;5.790;2023-04-25T15:29:24;7.40;;;1.65;;
62256;SDS011;48240;52.962;5.790;2023-04-25T15:31:51;7.43;;;1.63;;
62256;SDS011;48240;52.962;5.790;2023-04-25T15:34:17;7.47;;;1.35;;
62256;SDS011;48240;52.962;5.790;2023-04-25T15:36:43;7.25;;;1.48;;
62256;SDS011;48240;52.962;5.790;2023-04-25T15:39:10;7.28;;;1.45;;
62256;SDS011;48240;52.962;5.790;2023-04-25T15:41:36;8.30;;;1.20;;
62256;SDS011;48240;52.962;5.790;2023-04-25T15:44:02;7.68;;;1.63;;
62256;SDS011;48240;52.962;5.790;2023-04-25T15:46:29;7.10;;;1.52;;
62256;SDS011;48240;52.962;5.790;2023-04-25T15:48:55;7.43;;;1.30;;
62256;SDS011;48240;52.962;5.790;2023-04-25T15:51:21;7.25;;;1.33;;
62256;SDS011;48240;52.962;5.790;2023-04-25T15:53:47;5.05;;;1.25;;
62256;SDS011;48240;52.962;5.790;2023-04-25T15:56:13;7.65;;;1.42;;
62256;SDS011;48240;52.962;5.790;2023-04-25T15:58:39;6.60;;;1.30;;
62256;SDS011;48240;52.962;5.790;2023-04-25T16:01:06;5.60;;;1.48;;
62256;SDS011;48240;52.962;5.790;2023-04-25T16:03:32;6.00;;;1.20;;
62256;SDS011;48240;52.962;5.790;2023-04-25T16:05:58;7.15;;;1.40;;
62256;SDS011;48240;52.962;5.790;2023-04-25T16:08:24;7.55;;;1.20;;
62256;SDS011;48240;52.962;5.790;2023-04-25T16:10:53;7.50;;;1.17;;
62256;SDS011;48240;52.962;5.790;2023-04-25T16:13:20;7.68;;;1.63;;
62256;SDS011;48240;52.962;5.790;2023-04-25T16:15:47;9.57;;;1.80;;
62256;SDS011;48240;52.962;5.790;2023-04-25T16:18:13;5.75;;;1.30;;
62256;SDS011;48240;52.962;5.790;2023-04-25T16:20:39;8.88;;;1.50;;
62256;SDS011;48240;52.962;5.790;2023-04-25T16:23:05;8.73;;;1.55;;
62256;SDS011;48240;52.962;5.790;2023-04-25T16:25:31;10.13;;;1.30;;
62256;SDS011;48240;52.962;5.790;2023-04-25T16:27:57;8.52;;;1.80;;
62256;SDS011;48240;52.962;5.790;2023-04-25T16:30:23;8.25;;;1.38;;
62256;SDS011;48240;52.962;5.790;2023-04-25T16:32:50;9.98;;;1.33;;
62256;SDS011;48240;52.962;5.790;2023-04-25T16:35:16;5.18;;;1.40;;
62256;SDS011;48240;52.962;5.790;2023-04-25T16:37:42;7.70;;;1.20;;
62256;SDS011;48240;52.962;5.790;2023-04-25T16:40:09;7.68;;;1.50;;
62256;SDS011;48240;52.962;5.790;2023-04-25T16:42:35;11.93;;;1.10;;
62256;SDS011;48240;52.962;5.790;2023-04-25T16:45:01;7.40;;;1.20;;
62256;SDS011;48240;52.962;5.790;2023-04-25T16:47:29;6.85;;;1.40;;
62256;SDS011;48240;52.962;5.790;2023-04-25T16:49:55;5.65;;;1.50;;
62256;SDS011;48240;52.962;5.790;2023-04-25T16:52:21;9.05;;;1.30;;
62256;SDS011;48240;52.962;5.790;2023-04-25T16:54:48;7.60;;;1.48;;
62256;SDS011;48240;52.962;5.790;2023-04-25T16:57:14;6.43;;;1.30;;
62256;SDS011;48240;52.962;5.790;2023-04-25T16:59:40;4.60;;;1.00;;
62256;SDS011;48240;52.962;5.790;2023-04-25T17:02:07;6.32;;;1.40;;
62256;SDS011;48240;52.962;5.790;2023-04-25T17:04:35;7.15;;;1.30;;
62256;SDS011;48240;52.962;5.790;2023-04-25T17:07:01;9.27;;;1.27;;
62256;SDS011;48240;52.962;5.790;2023-04-25T17:09:27;5.28;;;1.30;;
62256;SDS011;48240;52.962;5.790;2023-04-25T17:11:53;2.90;;;1.00;;
62256;SDS011;48240;52.962;5.790;2023-04-25T17:14:19;4.68;;;1.30;;
62256;SDS011;48240;52.962;5.790;2023-04-25T17:16:45;2.47;;;0.90;;
62256;SDS011;48240;52.962;5.790;2023-04-25T17:19:11;4.65;;;1.40;;
62256;SDS011;48240;52.962;5.790;2023-04-25T17:21:37;10.07;;;1.48;;
62256;SDS011;48240;52.962;5.790;2023-04-25T17:24:04;6.93;;;1.30;;
62256;SDS011;48240;52.962;5.790;2023-04-25T17:26:33;10.82;;;1.20;;
62256;SDS011;48240;52.962;5.790;2023-04-25T17:29:00;6.63;;;1.10;;
62256;SDS011;48240;52.962;5.790;2023-04-25T17:31:26;6.00;;;1.02;;
62256;SDS011;48240;52.962;5.790;2023-04-25T17:33:52;6.82;;;1.45;;
62256;SDS011;48240;52.962;5.790;2023-04-25T17:36:18;5.63;;;1.40;;
62256;SDS011;48240;52.962;5.790;2023-04-25T17:38:45;9.77;;;1.48;;
62256;SDS011;48240;52.962;5.790;2023-04-25T17:41:11;6.20;;;1.33;;
62256;SDS011;48240;52.962;5.790;2023-04-25T17:43:39;5.75;;;1.30;;
62256;SDS011;48240;52.962;5.790;2023-04-25T17:46:05;5.43;;;1.27;;
62256;SDS011;48240;52.962;5.790;2023-04-25T17:48:31;6.50;;;1.25;;
62256;SDS011;48240;52.962;5.790;2023-04-25T17:50:57;8.95;;;1.50;;
62256;SDS011;48240;52.962;5.790;2023-04-25T17:53:23;7.20;;;1.15;;
62256;SDS011;48240;52.962;5.790;2023-04-25T17:55:50;10.98;;;1.23;;
62256;SDS011;48240;52.962;5.790;2023-04-25T17:58:16;8.80;;;1.40;;
62256;SDS011;48240;52.962;5.790;2023-04-25T18:00:42;7.80;;;1.60;;
62256;SDS011;48240;52.962;5.790;2023-04-25T18:03:08;14.88;;;2.45;;
62256;SDS011;48240;52.962;5.790;2023-04-25T18:05:34;10.02;;;1.67;;
62256;SDS011;48240;52.962;5.790;2023-04-25T18:08:00;6.28;;;1.38;;
62256;SDS011;48240;52.962;5.790;2023-04-25T18:10:26;5.10;;;1.20;;
62256;SDS011;48240;52.962;5.790;2023-04-25T18:12:53;10.07;;;1.67;;
62256;SDS011;48240;52.962;5.790;2023-04-25T18:15:19;9.60;;;1.48;;
62256;SDS011;48240;52.962;5.790;2023-04-25T18:17:46;6.07;;;1.42;;
62256;SDS011;48240;52.962;5.790;2023-04-25T18:20:12;6.10;;;1.20;;
62256;SDS011;48240;52.962;5.790;2023-04-25T18:22:40;6.80;;;1.15;;
62256;SDS011;48240;52.962;5.790;2023-04-25T18:25:07;8.05;;;1.20;;
62256;SDS011;48240;52.962;5.790;2023-04-25T18:27:35;6.72;;;1.20;;
62256;SDS011;48240;52.962;5.790;2023-04-25T18:30:02;6.75;;;1.20;;
62256;SDS011;48240;52.962;5.790;2023-04-25T18:32:29;8.32;;;1.30;;
62256;SDS011;48240;52.962;5.790;2023-04-25T18:34:55;10.35;;;1.35;;
62256;SDS011;48240;52.962;5.790;2023-04-25T18:37:21;6.07;;;1.35;;
62256;SDS011;48240;52.962;5.790;2023-04-25T18:39:47;4.93;;;1.10;;
62256;SDS011;48240;52.962;5.790;2023-04-25T18:42:13;8.18;;;1.17;;
62256;SDS011;48240;52.962;5.790;2023-04-25T18:44:40;9.75;;;1.55;;
62256;SDS011;48240;52.962;5.790;2023-04-25T18:47:07;6.57;;;1.10;;
62256;SDS011;48240;52.962;5.790;2023-04-25T18:49:34;10.38;;;1.70;;
62256;SDS011;48240;52.962;5.790;2023-04-25T18:52:01;6.95;;;1.15;;